Hlavní strana
METAR-TAF:

METAR-TAF

Letiště :

Krasnodar, Rusko

zeměpisná šířka: 45-02N, zeměpisná délka: 039-09E, výška: 33 m

Aktuální stav počasí

Zpráva byla vytvořena před 37 minutami, v 04:00 UTC
vítr z různých směrů 2 kt
Teplota 6°C
Vlhkost vzduchu 81%
Tlak 1024 hPa
Viditelnost 10 km a více
Žádná oblačnost pod 1500 m, nevyskytují se cumulonimby.

METAR: URKK 050400Z VRB01MPS CAVOK 06/03 Q1024 R23L/CLRD70 NOSIG RMK QFE764

Čas: 08:37 (04:37 UTC)

Předpověď počasí

Zpráva byla vytvořena před 2 hodinami a 46 minutami, v 01:51 UTC
Předpověď platná od 05 v 03 UTC do 06 v 03 UTC
Severní vítr 6 kt s nárazy do 16 kt
Viditelnost 10 km a více
Polojasno ve výšce 3000 ft
Dočasný
od 05 v 12 UTC do 06 v 03 UTC
Severoseverovýchodní vítr 14 kt s nárazy do 29 kt

TAF: URKK 050151Z 0503/0603 01003G08MPS 9999 SCT030 TEMPO 0512/0603 03007G15MPS

Stav a předpovědi počasí z více než 4 000 letišť (zprávy METAR a TAF).

Červené a žluté tečky na mapě představují dostupné meteorologické stanice.

Když kurzor umístíte na tečku, zobrazí se název stanice.

Pak kliknutím zobrazíte stav a předpověď počasí.

Chcete-li změnit mapu, kliknutím na zelené tlačítko se znaménkem +mapu přiblížíte, kliknutím na zelené tlačítko se znaménkem – mapu oddálíte a kliknutím na zelené šipky přejdete na sousední mapy.


METAR-TAF: